createdAt,value
2022-08-26T00:00:33.725Z,990.97
2022-08-26T00:01:33.715Z,990.97
2022-08-26T00:02:33.760Z,991.02
2022-08-26T00:03:33.694Z,990.98
2022-08-26T00:04:33.680Z,990.98
2022-08-26T00:05:33.733Z,990.97
2022-08-26T00:06:33.676Z,990.99
2022-08-26T00:07:33.684Z,990.99
2022-08-26T00:08:33.662Z,990.97
2022-08-26T00:09:33.662Z,990.96
2022-08-26T00:10:34.674Z,991.03
2022-08-26T00:11:33.679Z,991.02
2022-08-26T00:12:37.564Z,991.01
2022-08-26T00:13:33.620Z,991.02
2022-08-26T00:14:33.622Z,990.98
2022-08-26T00:15:33.618Z,990.98
2022-08-26T00:16:33.704Z,990.97
2022-08-26T00:17:33.629Z,990.98
2022-08-26T00:18:33.603Z,990.97
2022-08-26T00:19:34.614Z,990.94
2022-08-26T00:20:33.585Z,990.96
2022-08-26T00:21:33.589Z,990.95
2022-08-26T00:22:33.578Z,990.93
2022-08-26T00:23:33.551Z,990.92
2022-08-26T00:24:33.566Z,990.93
2022-08-26T00:25:33.540Z,990.94
2022-08-26T00:26:33.540Z,990.95
2022-08-26T00:27:33.530Z,990.94
2022-08-26T00:28:33.529Z,990.95
2022-08-26T00:29:35.460Z,990.94
2022-08-26T00:30:33.523Z,990.92
2022-08-26T00:31:33.546Z,990.92
2022-08-26T00:32:33.534Z,990.95
2022-08-26T00:33:33.473Z,990.94
2022-08-26T00:34:33.504Z,990.87
2022-08-26T00:35:33.538Z,990.96
2022-08-26T00:36:33.575Z,990.87
2022-08-26T00:37:33.498Z,990.90
2022-08-26T00:38:33.487Z,990.80
2022-08-26T00:39:33.443Z,990.86
2022-08-26T00:40:33.535Z,990.83
2022-08-26T00:41:33.462Z,990.84
2022-08-26T00:42:33.462Z,990.85
2022-08-26T00:43:33.428Z,990.82
2022-08-26T00:44:34.443Z,990.79
2022-08-26T00:45:33.485Z,990.84
2022-08-26T00:46:33.394Z,990.84
2022-08-26T00:47:34.400Z,990.83
2022-08-26T00:48:33.394Z,990.85
2022-08-26T00:49:33.402Z,990.84
2022-08-26T00:50:33.383Z,990.84
2022-08-26T00:51:33.369Z,990.85
2022-08-26T00:52:33.432Z,990.82
2022-08-26T00:53:33.355Z,990.79
2022-08-26T00:54:33.371Z,990.78
2022-08-26T00:55:37.935Z,990.80
2022-08-26T00:56:34.386Z,990.78
2022-08-26T00:57:33.485Z,990.83
2022-08-26T00:58:33.326Z,990.84
2022-08-26T00:59:33.318Z,990.77
2022-08-26T01:00:33.309Z,990.78
2022-08-26T01:01:33.386Z,990.85
2022-08-26T01:02:33.336Z,990.78
2022-08-26T01:03:33.292Z,990.79
2022-08-26T01:04:33.282Z,990.79
2022-08-26T01:05:33.297Z,990.80
2022-08-26T01:06:33.378Z,990.86
2022-08-26T01:07:33.250Z,990.87
2022-08-26T01:08:33.248Z,990.81
2022-08-26T01:09:33.316Z,990.82
2022-08-26T01:10:33.266Z,990.82
2022-08-26T01:11:33.249Z,990.86
2022-08-26T01:12:33.269Z,990.79
2022-08-26T01:13:33.279Z,990.84
2022-08-26T01:14:33.225Z,990.77
2022-08-26T01:15:33.245Z,990.79
2022-08-26T01:16:33.268Z,990.82
2022-08-26T01:17:33.823Z,990.84
2022-08-26T01:18:33.231Z,990.76
2022-08-26T01:19:33.243Z,990.78
2022-08-26T01:20:33.175Z,990.74
2022-08-26T01:21:33.162Z,990.77
2022-08-26T01:22:33.254Z,990.80
2022-08-26T01:23:33.207Z,990.83
2022-08-26T01:24:33.171Z,990.77
2022-08-26T01:25:33.157Z,990.84
2022-08-26T01:26:33.227Z,990.80
2022-08-26T01:27:33.610Z,990.82
2022-08-26T01:28:33.171Z,990.81
2022-08-26T01:29:34.136Z,990.81
2022-08-26T01:30:33.129Z,990.91
2022-08-26T01:31:33.203Z,990.90
2022-08-26T01:32:33.118Z,990.87
2022-08-26T01:33:34.892Z,990.86
2022-08-26T01:34:34.146Z,990.92
2022-08-26T01:35:33.087Z,990.89
2022-08-26T01:36:33.085Z,990.88
2022-08-26T01:37:33.079Z,990.88
2022-08-26T01:38:33.089Z,990.87
2022-08-26T01:39:33.057Z,990.94
2022-08-26T01:40:33.249Z,990.92
2022-08-26T01:41:33.050Z,990.89
2022-08-26T01:42:33.042Z,990.95
2022-08-26T01:43:33.066Z,990.91
2022-08-26T01:44:33.036Z,990.95
2022-08-26T01:45:33.128Z,990.92
2022-08-26T01:46:33.012Z,990.93
2022-08-26T01:47:33.031Z,990.87
2022-08-26T01:48:33.006Z,990.94
2022-08-26T01:49:33.036Z,991.00
2022-08-26T01:50:33.036Z,990.97
2022-08-26T01:51:32.990Z,990.92
2022-08-26T01:52:33.010Z,990.94
2022-08-26T01:53:32.986Z,990.97
2022-08-26T01:54:32.966Z,990.93
2022-08-26T01:55:34.130Z,990.95
2022-08-26T01:56:33.060Z,990.94
2022-08-26T01:57:32.944Z,990.96
2022-08-26T01:58:32.938Z,990.95
2022-08-26T01:59:32.929Z,990.94
2022-08-26T02:00:33.027Z,990.98
2022-08-26T02:01:32.950Z,990.98
2022-08-26T02:02:32.905Z,990.95
2022-08-26T02:03:33.023Z,990.90
2022-08-26T02:04:33.939Z,990.94
2022-08-26T02:05:32.922Z,990.91
2022-08-26T02:06:32.896Z,990.89
2022-08-26T02:07:33.326Z,990.90
2022-08-26T02:08:32.882Z,990.95
2022-08-26T02:09:32.862Z,990.87
2022-08-26T02:10:33.858Z,990.86
2022-08-26T02:11:32.868Z,990.91
2022-08-26T02:12:32.871Z,990.89
2022-08-26T02:13:32.858Z,990.90
2022-08-26T02:14:32.829Z,990.90
2022-08-26T02:15:32.845Z,990.91
2022-08-26T02:16:32.907Z,990.90
2022-08-26T02:17:32.933Z,990.88
2022-08-26T02:18:32.847Z,990.86
2022-08-26T02:19:32.843Z,990.89
2022-08-26T02:20:32.807Z,990.91
2022-08-26T02:21:32.787Z,990.92
2022-08-26T02:22:32.791Z,990.93
2022-08-26T02:23:32.816Z,990.91
2022-08-26T02:24:32.790Z,990.95
2022-08-26T02:25:32.756Z,990.89
2022-08-26T02:26:32.757Z,990.92
2022-08-26T02:27:33.000Z,990.98
2022-08-26T02:28:32.771Z,990.93
2022-08-26T02:29:32.740Z,990.92
2022-08-26T02:30:32.740Z,990.98
2022-08-26T02:31:32.773Z,990.96
2022-08-26T02:32:32.743Z,991.04
2022-08-26T02:33:32.718Z,990.96
2022-08-26T02:34:32.695Z,990.97
2022-08-26T02:35:32.690Z,990.94
2022-08-26T02:36:32.687Z,990.92
2022-08-26T02:37:32.725Z,990.94
2022-08-26T02:38:32.699Z,990.96
2022-08-26T02:39:32.711Z,991.01
2022-08-26T02:40:32.766Z,990.97
2022-08-26T02:41:32.669Z,990.95
2022-08-26T02:42:32.662Z,990.93
2022-08-26T02:43:32.832Z,990.98
2022-08-26T02:44:32.705Z,990.98
2022-08-26T02:45:32.642Z,990.97
2022-08-26T02:46:32.678Z,990.89
2022-08-26T02:47:32.656Z,990.96
2022-08-26T02:48:33.643Z,990.89
2022-08-26T02:49:32.615Z,990.86
2022-08-26T02:50:32.621Z,990.94
2022-08-26T02:51:32.601Z,991.00
2022-08-26T02:52:32.616Z,990.91
2022-08-26T02:53:35.543Z,990.85
2022-08-26T02:54:32.587Z,990.95
2022-08-26T02:55:32.634Z,990.89
2022-08-26T02:56:32.573Z,990.89
2022-08-26T02:57:32.569Z,990.90
2022-08-26T02:58:32.583Z,990.87
2022-08-26T02:59:32.541Z,990.93
2022-08-26T03:00:32.590Z,990.87
2022-08-26T03:01:32.620Z,990.91
2022-08-26T03:02:32.554Z,990.87
2022-08-26T03:03:32.507Z,990.94
2022-08-26T03:04:33.473Z,990.87
2022-08-26T03:05:32.528Z,990.92
2022-08-26T03:06:32.531Z,990.89
2022-08-26T03:07:32.495Z,990.88
2022-08-26T03:08:32.478Z,990.91
2022-08-26T03:09:32.495Z,990.89
2022-08-26T03:10:32.505Z,990.87
2022-08-26T03:11:33.309Z,990.90
2022-08-26T03:12:33.513Z,990.83
2022-08-26T03:13:32.491Z,990.83
2022-08-26T03:14:32.463Z,990.82
2022-08-26T03:15:32.449Z,990.86
2022-08-26T03:16:32.653Z,990.88
2022-08-26T03:17:32.472Z,990.81
2022-08-26T03:18:32.474Z,990.86
2022-08-26T03:19:32.425Z,990.86
2022-08-26T03:20:32.429Z,990.79
2022-08-26T03:21:32.415Z,990.85
2022-08-26T03:22:32.432Z,990.82
2022-08-26T03:23:32.401Z,990.77
2022-08-26T03:24:32.411Z,990.80
2022-08-26T03:25:32.393Z,990.80
2022-08-26T03:26:32.390Z,990.73
2022-08-26T03:27:32.820Z,990.76
2022-08-26T03:28:32.419Z,990.80
2022-08-26T03:29:32.978Z,990.78
2022-08-26T03:30:32.372Z,990.83
2022-08-26T03:31:32.407Z,990.81
2022-08-26T03:32:32.347Z,990.82
2022-08-26T03:33:32.387Z,990.79
2022-08-26T03:34:32.340Z,990.78
2022-08-26T03:35:32.369Z,990.77
2022-08-26T03:36:32.351Z,990.76
2022-08-26T03:37:32.320Z,990.76
2022-08-26T03:38:32.346Z,990.78
2022-08-26T03:39:32.610Z,990.73
2022-08-26T03:40:32.397Z,990.73
2022-08-26T03:41:32.322Z,990.77
2022-08-26T03:42:32.325Z,990.75
2022-08-26T03:43:32.320Z,990.79
2022-08-26T03:44:32.301Z,990.79
2022-08-26T03:45:32.289Z,990.77
2022-08-26T03:46:32.343Z,990.73
2022-08-26T03:47:32.279Z,990.74
2022-08-26T03:48:32.318Z,990.74
2022-08-26T03:49:32.234Z,990.78
2022-08-26T03:50:34.357Z,990.75
2022-08-26T03:51:32.294Z,990.75
2022-08-26T03:52:32.252Z,990.73
2022-08-26T03:53:32.265Z,990.73
2022-08-26T03:54:32.246Z,990.73
2022-08-26T03:55:32.263Z,990.76
2022-08-26T03:56:32.202Z,990.77
2022-08-26T03:57:32.207Z,990.79
2022-08-26T03:58:32.268Z,990.80
2022-08-26T03:59:32.193Z,990.76
2022-08-26T04:00:32.176Z,990.76
2022-08-26T04:01:32.405Z,990.74
2022-08-26T04:02:32.211Z,990.77
2022-08-26T04:03:32.157Z,990.76
2022-08-26T04:04:32.148Z,990.78
2022-08-26T04:05:32.189Z,990.77
2022-08-26T04:06:32.194Z,990.74
2022-08-26T04:07:32.175Z,990.80
2022-08-26T04:08:32.258Z,990.77
2022-08-26T04:09:32.180Z,990.79
2022-08-26T04:10:32.139Z,990.77
2022-08-26T04:11:32.175Z,990.78
2022-08-26T04:12:32.151Z,990.77
2022-08-26T04:13:32.102Z,990.79
2022-08-26T04:14:32.079Z,990.83
2022-08-26T04:15:32.097Z,990.77
2022-08-26T04:16:32.131Z,990.80
2022-08-26T04:17:32.099Z,990.76
2022-08-26T04:18:37.281Z,990.81
2022-08-26T04:19:34.058Z,990.76
2022-08-26T04:20:32.060Z,990.84
2022-08-26T04:21:32.054Z,990.74
2022-08-26T04:22:32.073Z,990.78
2022-08-26T04:23:32.062Z,990.79
2022-08-26T04:24:33.027Z,990.77
2022-08-26T04:25:32.029Z,990.81
2022-08-26T04:26:32.016Z,990.78
2022-08-26T04:27:32.019Z,990.76
2022-08-26T04:28:32.027Z,990.74
2022-08-26T04:29:32.006Z,990.80
2022-08-26T04:30:32.021Z,990.76
2022-08-26T04:31:32.075Z,990.77
2022-08-26T04:32:32.021Z,990.73
2022-08-26T04:33:33.231Z,990.76
2022-08-26T04:34:31.993Z,990.68
2022-08-26T04:35:31.979Z,990.72
2022-08-26T04:36:31.952Z,990.77
2022-08-26T04:37:31.958Z,990.73
2022-08-26T04:38:31.965Z,990.76
2022-08-26T04:39:32.129Z,990.68
2022-08-26T04:40:32.049Z,990.68
2022-08-26T04:41:31.929Z,990.77
2022-08-26T04:42:31.931Z,990.70
2022-08-26T04:43:31.911Z,990.69
2022-08-26T04:44:31.899Z,990.74
2022-08-26T04:45:31.940Z,990.68
2022-08-26T04:46:31.994Z,990.76
2022-08-26T04:47:32.553Z,990.75
2022-08-26T04:48:32.946Z,990.67
2022-08-26T04:49:35.053Z,990.72
2022-08-26T04:50:31.891Z,990.75
2022-08-26T04:51:31.875Z,990.77
2022-08-26T04:52:31.852Z,990.73
2022-08-26T04:53:31.838Z,990.73
2022-08-26T04:54:31.844Z,990.70
2022-08-26T04:55:38.629Z,990.76
2022-08-26T04:56:32.840Z,990.76
2022-08-26T04:57:31.825Z,990.79
2022-08-26T04:58:31.913Z,990.72
2022-08-26T04:59:34.082Z,990.78
2022-08-26T05:00:32.835Z,990.77
2022-08-26T05:01:31.914Z,990.77
2022-08-26T05:02:31.780Z,990.78
2022-08-26T05:03:31.787Z,990.82
2022-08-26T05:04:31.811Z,990.78
2022-08-26T05:05:31.773Z,990.80
2022-08-26T05:06:31.824Z,990.80
2022-08-26T05:07:32.790Z,990.80
2022-08-26T05:08:31.765Z,990.75
2022-08-26T05:09:31.742Z,990.69
2022-08-26T05:10:31.754Z,990.76
2022-08-26T05:11:31.761Z,990.78
2022-08-26T05:12:31.771Z,990.77
2022-08-26T05:13:31.722Z,990.76
2022-08-26T05:14:31.756Z,990.82
2022-08-26T05:15:31.733Z,990.80
2022-08-26T05:16:31.720Z,990.79
2022-08-26T05:17:31.681Z,990.80
2022-08-26T05:18:31.695Z,990.83
2022-08-26T05:19:31.707Z,990.78
2022-08-26T05:20:31.708Z,990.79
2022-08-26T05:21:31.668Z,990.84
2022-08-26T05:22:31.660Z,990.79
2022-08-26T05:23:31.684Z,990.78
2022-08-26T05:24:31.647Z,990.82
2022-08-26T05:25:31.632Z,990.87
2022-08-26T05:26:31.632Z,990.86
2022-08-26T05:27:31.651Z,990.84
2022-08-26T05:28:31.687Z,990.86
2022-08-26T05:29:31.609Z,990.86
2022-08-26T05:30:31.652Z,990.80
2022-08-26T05:31:31.811Z,990.79
2022-08-26T05:32:31.725Z,990.81
2022-08-26T05:33:31.627Z,990.83
2022-08-26T05:34:31.645Z,990.80
2022-08-26T05:35:31.590Z,990.79
2022-08-26T05:36:31.578Z,990.82
2022-08-26T05:37:31.584Z,990.82
2022-08-26T05:38:31.654Z,990.90
2022-08-26T05:39:31.569Z,990.86
2022-08-26T05:40:31.604Z,990.91
2022-08-26T05:41:34.161Z,990.87
2022-08-26T05:42:31.533Z,990.82
2022-08-26T05:43:31.579Z,990.90
2022-08-26T05:44:50.099Z,990.91
2022-08-26T05:45:32.503Z,990.91
2022-08-26T05:46:31.562Z,990.95
2022-08-26T05:47:31.518Z,990.89
2022-08-26T05:48:31.566Z,990.88
2022-08-26T05:49:32.873Z,990.88
2022-08-26T05:50:31.515Z,990.87
2022-08-26T05:51:31.526Z,990.88
2022-08-26T05:52:31.481Z,990.88
2022-08-26T05:53:31.452Z,990.88
2022-08-26T05:54:31.438Z,990.85
2022-08-26T05:55:31.460Z,990.87
2022-08-26T05:56:31.481Z,990.88
2022-08-26T05:57:31.456Z,990.89
2022-08-26T05:58:31.427Z,990.94
2022-08-26T05:59:31.428Z,990.91
2022-08-26T06:00:31.457Z,990.89
2022-08-26T06:01:31.456Z,990.90
2022-08-26T06:02:31.440Z,990.90
2022-08-26T06:03:31.444Z,990.91
2022-08-26T06:04:31.434Z,990.93
2022-08-26T06:05:35.329Z,990.97
2022-08-26T06:06:32.430Z,990.93
2022-08-26T06:07:31.355Z,990.94
2022-08-26T06:08:31.398Z,990.91
2022-08-26T06:09:31.361Z,990.84
2022-08-26T06:10:32.847Z,990.84
2022-08-26T06:11:32.359Z,990.85
2022-08-26T06:12:31.350Z,990.86
2022-08-26T06:13:32.031Z,990.89
2022-08-26T06:14:31.317Z,990.81
2022-08-26T06:15:31.403Z,990.88
2022-08-26T06:16:31.303Z,990.81
2022-08-26T06:17:31.339Z,990.78
2022-08-26T06:18:31.342Z,990.83
2022-08-26T06:19:32.801Z,990.84
2022-08-26T06:20:31.342Z,990.84
2022-08-26T06:21:31.294Z,990.87
2022-08-26T06:22:31.336Z,990.89
2022-08-26T06:23:31.280Z,990.87
2022-08-26T06:24:31.271Z,990.88
2022-08-26T06:25:31.257Z,990.84
2022-08-26T06:26:31.305Z,990.86
2022-08-26T06:27:32.865Z,990.91
2022-08-26T06:28:32.256Z,990.91
2022-08-26T06:29:31.214Z,990.91
2022-08-26T06:30:31.203Z,990.89
2022-08-26T06:31:31.297Z,990.92
2022-08-26T06:32:31.193Z,990.87
2022-08-26T06:33:31.188Z,990.95
2022-08-26T06:34:31.193Z,990.93
2022-08-26T06:35:31.170Z,990.91
2022-08-26T06:36:31.165Z,990.92
2022-08-26T06:37:31.193Z,990.91
2022-08-26T06:38:31.154Z,990.92
2022-08-26T06:39:31.481Z,990.92
2022-08-26T06:40:31.190Z,990.88
2022-08-26T06:41:31.154Z,990.92
2022-08-26T06:42:31.202Z,990.90
2022-08-26T06:43:31.207Z,990.87
2022-08-26T06:44:31.267Z,990.89
2022-08-26T06:45:31.127Z,990.91
2022-08-26T06:46:31.151Z,990.86
2022-08-26T06:47:31.126Z,990.87
2022-08-26T06:48:31.109Z,990.87
2022-08-26T06:49:31.092Z,990.86
2022-08-26T06:50:31.132Z,990.87
2022-08-26T06:51:31.082Z,990.85
2022-08-26T06:52:31.073Z,990.92
2022-08-26T06:53:31.079Z,990.87
2022-08-26T06:54:31.085Z,990.91
2022-08-26T06:55:31.071Z,990.85
2022-08-26T06:56:31.051Z,990.85
2022-08-26T06:57:31.044Z,990.90
2022-08-26T06:58:31.027Z,990.90
2022-08-26T06:59:31.006Z,990.90
2022-08-26T07:00:31.148Z,990.90
2022-08-26T07:01:31.183Z,990.91
2022-08-26T07:02:31.016Z,990.84
2022-08-26T07:03:30.993Z,990.87
2022-08-26T07:04:33.096Z,990.87
2022-08-26T07:05:30.968Z,990.92
2022-08-26T07:06:30.980Z,990.91
2022-08-26T07:07:31.026Z,990.89
2022-08-26T07:08:30.959Z,990.93
2022-08-26T07:09:30.955Z,990.96
2022-08-26T07:10:30.954Z,990.92
2022-08-26T07:11:30.934Z,990.89
2022-08-26T07:12:31.004Z,990.91
2022-08-26T07:13:31.029Z,990.95
2022-08-26T07:14:30.931Z,990.95
2022-08-26T07:15:31.538Z,990.89
2022-08-26T07:16:30.899Z,990.88
2022-08-26T07:17:30.935Z,990.87
2022-08-26T07:18:30.912Z,990.88
2022-08-26T07:19:31.907Z,990.89
2022-08-26T07:20:31.869Z,990.89
2022-08-26T07:21:31.729Z,990.89
2022-08-26T07:22:30.854Z,990.87
2022-08-26T07:23:30.930Z,990.88
2022-08-26T07:24:30.873Z,990.90
2022-08-26T07:25:30.851Z,990.93
2022-08-26T07:26:30.853Z,990.86
2022-08-26T07:27:30.828Z,990.85
2022-08-26T07:28:30.867Z,990.79
2022-08-26T07:29:30.844Z,990.85
2022-08-26T07:30:30.819Z,990.86
2022-08-26T07:31:33.589Z,990.88
2022-08-26T07:32:31.807Z,990.86
2022-08-26T07:33:30.801Z,990.89
2022-08-26T07:34:30.816Z,990.92
2022-08-26T07:35:30.795Z,990.88
2022-08-26T07:36:30.931Z,990.89
2022-08-26T07:37:30.778Z,990.88
2022-08-26T07:38:31.789Z,990.89
2022-08-26T07:39:31.651Z,990.87
2022-08-26T07:40:30.882Z,990.88
2022-08-26T07:41:30.775Z,990.92
2022-08-26T07:42:30.731Z,990.93
2022-08-26T07:43:30.722Z,990.92
2022-08-26T07:44:30.868Z,990.97
2022-08-26T07:45:30.739Z,990.97
2022-08-26T07:46:30.825Z,990.87
2022-08-26T07:47:30.764Z,990.95
2022-08-26T07:48:30.703Z,990.91
2022-08-26T07:49:30.745Z,990.92
2022-08-26T07:50:49.279Z,990.94
2022-08-26T07:51:31.818Z,990.97
2022-08-26T07:52:30.692Z,990.90
2022-08-26T07:53:30.692Z,990.92
2022-08-26T07:54:30.647Z,990.92
2022-08-26T07:55:30.684Z,990.93
2022-08-26T07:56:30.747Z,990.94
2022-08-26T07:57:30.699Z,990.92
2022-08-26T07:58:30.717Z,990.94
2022-08-26T07:59:30.640Z,990.90
2022-08-26T08:00:30.663Z,990.91
2022-08-26T08:01:30.640Z,990.93
2022-08-26T08:02:30.664Z,990.86
2022-08-26T08:03:30.624Z,990.89
2022-08-26T08:04:30.606Z,990.91
2022-08-26T08:05:33.432Z,990.86
2022-08-26T08:06:30.572Z,990.84
2022-08-26T08:07:44.338Z,990.89
2022-08-26T08:08:31.568Z,990.83
2022-08-26T08:09:30.597Z,990.86
2022-08-26T08:10:30.599Z,990.82
2022-08-26T08:11:30.633Z,990.82
2022-08-26T08:12:30.577Z,990.77
2022-08-26T08:13:30.570Z,990.77
2022-08-26T08:14:30.572Z,990.79
2022-08-26T08:15:30.520Z,990.80
2022-08-26T08:16:32.105Z,990.81
2022-08-26T08:17:30.525Z,990.85
2022-08-26T08:18:30.531Z,990.80
2022-08-26T08:19:36.704Z,990.80
2022-08-26T08:20:31.532Z,990.83
2022-08-26T08:21:30.515Z,990.77
2022-08-26T08:22:30.529Z,990.78
2022-08-26T08:23:30.511Z,990.78
2022-08-26T08:24:30.483Z,990.86
2022-08-26T08:25:30.472Z,990.82
2022-08-26T08:26:30.520Z,990.85
2022-08-26T08:27:30.444Z,990.80
2022-08-26T08:28:30.433Z,990.77
2022-08-26T08:29:30.523Z,990.79
2022-08-26T08:30:30.553Z,990.79
2022-08-26T08:31:56.002Z,990.70
2022-08-26T08:32:32.457Z,990.82
2022-08-26T08:33:30.412Z,990.82
2022-08-26T08:34:30.484Z,990.81
2022-08-26T08:35:30.382Z,990.75
2022-08-26T08:36:35.895Z,990.78
2022-08-26T08:37:31.417Z,990.71
2022-08-26T08:38:30.366Z,990.78
2022-08-26T08:39:30.394Z,990.71
2022-08-26T08:40:30.463Z,990.76
2022-08-26T08:41:30.533Z,990.82
2022-08-26T08:42:30.380Z,990.76
2022-08-26T08:43:30.354Z,990.74
2022-08-26T08:44:30.510Z,990.68
2022-08-26T08:45:32.216Z,990.78
2022-08-26T08:46:31.326Z,990.76
2022-08-26T08:47:30.379Z,990.70
2022-08-26T08:48:30.406Z,990.70
2022-08-26T08:49:30.316Z,990.67
2022-08-26T08:50:30.392Z,990.69
2022-08-26T08:51:30.357Z,990.64
2022-08-26T08:52:30.354Z,990.63
2022-08-26T08:53:30.534Z,990.66
2022-08-26T08:54:30.264Z,990.59
2022-08-26T08:55:30.331Z,990.61
2022-08-26T08:56:30.287Z,990.62
2022-08-26T08:57:30.287Z,990.54
2022-08-26T08:58:30.232Z,990.59
2022-08-26T08:59:30.362Z,990.57
2022-08-26T09:00:30.758Z,990.51
2022-08-26T09:01:30.294Z,990.57
2022-08-26T09:02:30.300Z,990.56
2022-08-26T09:03:30.223Z,990.58
2022-08-26T09:04:30.200Z,990.59
2022-08-26T09:05:30.212Z,990.49
2022-08-26T09:06:30.237Z,990.59
2022-08-26T09:07:32.173Z,990.55
2022-08-26T09:08:30.194Z,990.55
2022-08-26T09:09:30.207Z,990.57
2022-08-26T09:10:30.162Z,990.57
2022-08-26T09:11:30.192Z,990.59
2022-08-26T09:12:30.226Z,990.53
2022-08-26T09:13:31.768Z,990.54
2022-08-26T09:14:30.250Z,990.55
2022-08-26T09:15:30.546Z,990.55
2022-08-26T09:16:31.194Z,990.54
2022-08-26T09:17:30.134Z,990.54
2022-08-26T09:18:30.123Z,990.47
2022-08-26T09:19:30.150Z,990.53
2022-08-26T09:20:30.153Z,990.52
2022-08-26T09:21:30.112Z,990.53
2022-08-26T09:22:30.142Z,990.55
2022-08-26T09:23:30.081Z,990.48
2022-08-26T09:24:30.104Z,990.52
2022-08-26T09:25:30.103Z,990.46
2022-08-26T09:26:31.007Z,990.48
2022-08-26T09:27:30.146Z,990.46
2022-08-26T09:28:30.090Z,990.50
2022-08-26T09:29:30.251Z,990.50
2022-08-26T09:30:30.127Z,990.49
2022-08-26T09:31:30.122Z,990.48
2022-08-26T09:32:30.248Z,990.39
2022-08-26T09:33:30.068Z,990.46
2022-08-26T09:34:30.053Z,990.46
2022-08-26T09:35:30.033Z,990.46
2022-08-26T09:36:30.033Z,990.44
2022-08-26T09:37:30.060Z,990.42
2022-08-26T09:38:30.033Z,990.43
2022-08-26T09:39:29.998Z,990.42
2022-08-26T09:40:30.178Z,990.37
2022-08-26T09:41:30.024Z,990.38
2022-08-26T09:42:29.982Z,990.36
2022-08-26T09:43:30.029Z,990.34
2022-08-26T09:44:29.990Z,990.37
2022-08-26T09:45:30.029Z,990.33
2022-08-26T09:46:30.031Z,990.29
2022-08-26T09:47:29.947Z,990.29
2022-08-26T09:48:29.999Z,990.30
2022-08-26T09:49:33.827Z,990.26
2022-08-26T09:50:31.933Z,990.20
2022-08-26T09:51:29.932Z,990.18
2022-08-26T09:52:29.940Z,990.15
2022-08-26T09:53:30.514Z,990.16
2022-08-26T09:54:30.340Z,990.18
2022-08-26T09:55:29.910Z,990.10
2022-08-26T09:56:29.910Z,990.10
2022-08-26T09:57:29.892Z,990.17
2022-08-26T09:58:30.326Z,990.11
2022-08-26T09:59:30.000Z,990.14
2022-08-26T10:00:29.981Z,990.08
2022-08-26T10:01:30.402Z,990.09
2022-08-26T10:02:29.897Z,989.96
2022-08-26T10:03:31.572Z,990.00
2022-08-26T10:04:29.955Z,989.98
2022-08-26T10:05:29.884Z,989.94
2022-08-26T10:06:29.830Z,989.93
2022-08-26T10:07:29.827Z,989.96
2022-08-26T10:08:29.854Z,989.97
2022-08-26T10:09:29.932Z,989.94
2022-08-26T10:10:29.842Z,989.94
2022-08-26T10:11:29.893Z,989.86
2022-08-26T10:12:29.824Z,989.87
2022-08-26T10:13:29.805Z,989.78
2022-08-26T10:14:29.802Z,989.80
2022-08-26T10:15:29.863Z,989.76
2022-08-26T10:16:29.870Z,989.78
2022-08-26T10:17:30.736Z,989.79
2022-08-26T10:18:33.646Z,989.67
2022-08-26T10:19:41.852Z,989.70
2022-08-26T10:20:30.753Z,989.73
2022-08-26T10:21:29.763Z,989.66
2022-08-26T10:22:29.860Z,989.69
2022-08-26T10:23:29.787Z,989.73
2022-08-26T10:24:29.714Z,989.69
2022-08-26T10:25:29.771Z,989.73
2022-08-26T10:26:29.717Z,989.67
2022-08-26T10:27:29.696Z,989.63
2022-08-26T10:28:29.728Z,989.64
2022-08-26T10:29:29.767Z,989.64
2022-08-26T10:30:29.670Z,989.60
2022-08-26T10:31:29.736Z,989.56
2022-08-26T10:32:30.728Z,989.58
2022-08-26T10:33:29.726Z,989.58
2022-08-26T10:34:29.654Z,989.54
2022-08-26T10:35:29.674Z,989.48
2022-08-26T10:36:29.643Z,989.50
2022-08-26T10:37:29.677Z,989.49
2022-08-26T10:38:29.683Z,989.47
2022-08-26T10:39:29.669Z,989.51
2022-08-26T10:40:29.667Z,989.50
2022-08-26T10:41:30.593Z,989.44
2022-08-26T10:42:29.664Z,989.58
2022-08-26T10:43:29.763Z,989.43
2022-08-26T10:44:29.735Z,989.48
2022-08-26T10:45:29.797Z,989.51
2022-08-26T10:46:29.655Z,989.53
2022-08-26T10:47:29.567Z,989.49
2022-08-26T10:48:35.412Z,989.49
2022-08-26T10:49:30.673Z,989.51
2022-08-26T10:50:29.624Z,989.43
2022-08-26T10:51:29.537Z,989.49
2022-08-26T10:52:29.579Z,989.44
2022-08-26T10:53:32.722Z,989.46
2022-08-26T10:54:29.492Z,989.44
2022-08-26T10:55:30.552Z,989.41
2022-08-26T10:56:29.586Z,989.45
2022-08-26T10:57:29.485Z,989.46
2022-08-26T10:58:29.547Z,989.42
2022-08-26T10:59:29.576Z,989.43
2022-08-26T11:00:29.599Z,989.42
2022-08-26T11:01:29.545Z,989.37
2022-08-26T11:02:29.474Z,989.39
2022-08-26T11:03:29.465Z,989.40
2022-08-26T11:04:29.518Z,989.37
2022-08-26T11:05:30.481Z,989.39
2022-08-26T11:06:29.455Z,989.42
2022-08-26T11:07:29.418Z,989.37
2022-08-26T11:08:29.401Z,989.37
2022-08-26T11:09:29.408Z,989.38
2022-08-26T11:10:29.421Z,989.36
2022-08-26T11:11:29.407Z,989.33
2022-08-26T11:12:29.391Z,989.26
2022-08-26T11:13:29.359Z,989.37
2022-08-26T11:14:31.362Z,989.38
2022-08-26T11:15:30.455Z,989.36
2022-08-26T11:16:29.442Z,989.34
2022-08-26T11:17:29.352Z,989.30
2022-08-26T11:18:29.357Z,989.33
2022-08-26T11:19:40.141Z,989.32
2022-08-26T11:20:31.337Z,989.28
2022-08-26T11:21:29.742Z,989.33
2022-08-26T11:22:29.293Z,989.30
2022-08-26T11:23:29.292Z,989.28
2022-08-26T11:24:29.345Z,989.27
2022-08-26T11:25:30.861Z,989.25
2022-08-26T11:26:37.827Z,989.28
2022-08-26T11:27:30.336Z,989.24
2022-08-26T11:28:29.283Z,989.28
2022-08-26T11:29:29.338Z,989.28
2022-08-26T11:30:29.302Z,989.23
2022-08-26T11:31:29.292Z,989.26
2022-08-26T11:32:29.402Z,989.28
2022-08-26T11:33:29.255Z,989.24
2022-08-26T11:34:29.316Z,989.25
2022-08-26T11:35:29.254Z,989.21
2022-08-26T11:36:29.325Z,989.17
2022-08-26T11:37:29.226Z,989.20
2022-08-26T11:38:29.303Z,989.21
2022-08-26T11:39:29.221Z,989.24
2022-08-26T11:40:29.243Z,989.22
2022-08-26T11:41:29.181Z,989.17
2022-08-26T11:42:29.175Z,989.20
2022-08-26T11:43:29.856Z,989.23
2022-08-26T11:44:29.258Z,989.20
2022-08-26T11:45:29.592Z,989.16
2022-08-26T11:46:29.167Z,989.14
2022-08-26T11:47:29.402Z,989.12
2022-08-26T11:48:29.135Z,989.16
2022-08-26T11:49:29.128Z,989.09
2022-08-26T11:50:29.134Z,989.11
2022-08-26T11:51:29.204Z,989.09
2022-08-26T11:52:29.087Z,989.03
2022-08-26T11:53:29.867Z,989.01
2022-08-26T11:54:35.385Z,989.08
2022-08-26T11:55:30.111Z,989.03
2022-08-26T11:56:31.785Z,989.02
2022-08-26T11:57:29.065Z,989.07
2022-08-26T11:58:29.067Z,989.03
2022-08-26T11:59:29.111Z,988.97
2022-08-26T12:00:31.419Z,989.01
2022-08-26T12:01:29.088Z,988.92
2022-08-26T12:02:29.090Z,988.89
2022-08-26T12:03:29.142Z,988.92
2022-08-26T12:04:29.179Z,988.90
2022-08-26T12:05:30.868Z,988.89
2022-08-26T12:06:29.073Z,988.87
2022-08-26T12:07:29.494Z,988.83
2022-08-26T12:08:29.909Z,988.83
2022-08-26T12:09:29.023Z,988.87
2022-08-26T12:10:29.506Z,988.86
2022-08-26T12:11:29.010Z,988.90
2022-08-26T12:12:31.790Z,988.88
2022-08-26T12:13:30.992Z,988.91
2022-08-26T12:14:29.022Z,988.97
2022-08-26T12:15:29.689Z,988.98
2022-08-26T12:16:29.047Z,989.00
2022-08-26T12:17:28.969Z,989.16
2022-08-26T12:18:30.103Z,989.09
2022-08-26T12:19:28.940Z,989.06
2022-08-26T12:20:28.964Z,989.09
2022-08-26T12:21:28.929Z,989.07
2022-08-26T12:22:29.938Z,989.03
2022-08-26T12:23:28.933Z,989.04
2022-08-26T12:24:28.918Z,989.07
2022-08-26T12:25:28.888Z,989.04
2022-08-26T12:26:29.952Z,989.07
2022-08-26T12:27:28.885Z,989.07
2022-08-26T12:28:28.892Z,989.11